createdAt,value
2019-01-30T00:01:01.895Z,-0.10
2019-01-30T00:03:04.069Z,-0.10
2019-01-30T00:05:06.946Z,-0.10
2019-01-30T00:07:08.863Z,-0.20
2019-01-30T00:09:10.998Z,-0.30
2019-01-30T00:11:12.832Z,-0.10
2019-01-30T00:13:14.670Z,-0.10
2019-01-30T00:15:16.675Z,-0.10
2019-01-30T00:17:18.494Z,-0.20
2019-01-30T00:19:20.230Z,-0.20
2019-01-30T00:21:22.058Z,-0.20
2019-01-30T00:23:23.770Z,-0.30
2019-01-30T00:25:25.863Z,-0.20
2019-01-30T00:27:27.810Z,-0.20
2019-01-30T00:29:29.526Z,-0.30
2019-01-30T00:31:31.402Z,-0.30
2019-01-30T00:33:33.114Z,-0.20
2019-01-30T00:35:34.944Z,-0.20
2019-01-30T00:37:37.171Z,-0.10
2019-01-30T00:39:38.902Z,-0.20
2019-01-30T00:41:40.962Z,-0.20
2019-01-30T00:43:42.691Z,-0.10
2019-01-30T00:45:44.544Z,-0.10
2019-01-30T00:47:46.250Z,-0.20
2019-01-30T00:49:48.112Z,-0.20
2019-01-30T00:51:49.843Z,-0.20
2019-01-30T00:53:51.542Z,-0.20
2019-01-30T00:55:53.357Z,-0.20
2019-01-30T00:57:55.081Z,-0.20
2019-01-30T00:59:56.794Z,-0.20
2019-01-30T01:01:58.626Z,-0.20
2019-01-30T01:04:00.438Z,-0.20
2019-01-30T01:06:02.378Z,-0.10
2019-01-30T01:08:04.214Z,-0.10
2019-01-30T01:10:07.932Z,-0.20
2019-01-30T01:12:09.643Z,-0.20
2019-01-30T01:14:11.371Z,-0.30
2019-01-30T01:16:13.075Z,-0.30
2019-01-30T01:18:14.858Z,-0.20
2019-01-30T01:20:16.791Z,-0.20
2019-01-30T01:22:18.606Z,-0.20
2019-01-30T01:24:20.342Z,-0.40
2019-01-30T01:26:22.154Z,-0.30
2019-01-30T01:28:23.962Z,-0.30
2019-01-30T01:30:26.599Z,-0.40
2019-01-30T01:32:28.323Z,-0.40
2019-01-30T01:34:30.047Z,-0.40
2019-01-30T01:36:31.750Z,-0.30
2019-01-30T01:38:33.450Z,-0.20
2019-01-30T01:40:35.291Z,-0.30
2019-01-30T01:42:37.218Z,-0.30
2019-01-30T01:44:39.196Z,-0.20
2019-01-30T01:46:41.004Z,-0.30
2019-01-30T01:48:42.838Z,-0.20
2019-01-30T01:50:44.659Z,-0.30
2019-01-30T01:52:46.588Z,-0.40
2019-01-30T01:54:48.619Z,-0.40
2019-01-30T01:56:50.328Z,-0.40
2019-01-30T01:58:52.039Z,-0.40
2019-01-30T02:00:53.858Z,-0.30
2019-01-30T02:02:55.597Z,-0.20
2019-01-30T02:04:57.419Z,-0.20
2019-01-30T02:07:00.025Z,-0.30
2019-01-30T02:09:04.531Z,-0.40
2019-01-30T02:11:06.343Z,-0.30
2019-01-30T02:13:08.284Z,-0.30
2019-01-30T02:15:12.155Z,-0.20
2019-01-30T02:17:13.872Z,-0.40
2019-01-30T02:19:16.031Z,-0.40
2019-01-30T02:21:18.200Z,-0.30
2019-01-30T02:23:19.910Z,-0.30
2019-01-30T02:25:21.639Z,-0.20
2019-01-30T02:27:23.366Z,-0.20
2019-01-30T02:29:25.090Z,-0.20
2019-01-30T02:31:26.861Z,-0.30
2019-01-30T02:33:28.586Z,-0.30
2019-01-30T02:35:30.391Z,-0.30
2019-01-30T02:37:32.118Z,-0.30
2019-01-30T02:39:34.402Z,-0.30
2019-01-30T02:41:36.128Z,-0.30
2019-01-30T02:43:37.838Z,-0.30
2019-01-30T02:45:39.664Z,-0.40
2019-01-30T02:47:41.608Z,-0.30
2019-01-30T02:49:43.622Z,-0.40
2019-01-30T02:51:45.494Z,-0.40
2019-01-30T02:53:47.270Z,-0.40
2019-01-30T02:55:48.985Z,-0.30
2019-01-30T02:57:50.834Z,-0.20
2019-01-30T02:59:52.550Z,-0.30
2019-01-30T03:02:17.608Z,-0.30
2019-01-30T03:04:19.433Z,-0.30
2019-01-30T03:06:21.122Z,-0.30
2019-01-30T03:08:22.837Z,-0.30
2019-01-30T03:10:24.902Z,-0.20
2019-01-30T03:12:26.715Z,-0.30
2019-01-30T03:14:28.431Z,-0.30
2019-01-30T03:16:30.308Z,-0.30
2019-01-30T03:18:32.023Z,-0.30
2019-01-30T03:20:34.631Z,-0.30
2019-01-30T03:22:36.352Z,-0.40
2019-01-30T03:24:38.063Z,-0.30
2019-01-30T03:26:39.762Z,-0.30
2019-01-30T03:28:41.650Z,-0.20
2019-01-30T03:30:43.700Z,-0.20
2019-01-30T03:32:45.603Z,-0.30
2019-01-30T03:34:47.408Z,-0.30
2019-01-30T03:36:49.097Z,-0.30
2019-01-30T03:38:50.906Z,-0.30
2019-01-30T03:40:52.723Z,-0.20
2019-01-30T03:42:54.534Z,-0.30
2019-01-30T03:44:56.246Z,-0.30
2019-01-30T03:46:58.134Z,-0.40
2019-01-30T03:49:00.130Z,-0.50
2019-01-30T03:51:01.962Z,-0.50
2019-01-30T03:53:03.867Z,-0.40
2019-01-30T03:55:07.360Z,-0.40
2019-01-30T03:57:09.171Z,-0.30
2019-01-30T03:59:10.980Z,-0.30
2019-01-30T04:01:12.791Z,-0.40
2019-01-30T04:03:14.830Z,-0.50
2019-01-30T04:05:16.643Z,-0.50
2019-01-30T04:07:18.379Z,-0.40
2019-01-30T04:09:20.213Z,-0.30
2019-01-30T04:11:21.911Z,-0.30
2019-01-30T04:13:23.614Z,-0.40
2019-01-30T04:15:25.374Z,-0.40
2019-01-30T04:17:27.215Z,-0.60
2019-01-30T04:19:28.914Z,-0.50
2019-01-30T04:21:30.658Z,-0.50
2019-01-30T04:23:32.382Z,-0.40
2019-01-30T04:25:34.102Z,-0.40
2019-01-30T04:27:35.937Z,-0.50
2019-01-30T04:29:37.699Z,-0.50
2019-01-30T04:31:39.506Z,-0.40
2019-01-30T04:33:41.222Z,-0.50
2019-01-30T04:35:43.104Z,-0.50
2019-01-30T04:37:44.923Z,-0.50
2019-01-30T04:39:46.681Z,-0.50
2019-01-30T04:41:48.566Z,-0.70
2019-01-30T04:43:50.284Z,-0.70
2019-01-30T04:45:52.140Z,-0.60
2019-01-30T04:47:54.018Z,-0.60
2019-01-30T04:49:55.759Z,-0.60
2019-01-30T04:51:57.475Z,-0.70
2019-01-30T04:53:59.648Z,-0.60
2019-01-30T04:56:01.582Z,-0.50
2019-01-30T04:58:03.491Z,-0.60
2019-01-30T05:00:06.721Z,-0.50
2019-01-30T05:02:08.434Z,-0.60
2019-01-30T05:04:10.522Z,-0.60
2019-01-30T05:06:12.236Z,-0.60
2019-01-30T05:08:14.059Z,-0.60
2019-01-30T05:10:15.978Z,-0.60
2019-01-30T05:12:17.676Z,-0.50
2019-01-30T05:14:19.403Z,-0.70
2019-01-30T05:16:21.132Z,-0.60
2019-01-30T05:18:23.167Z,-0.50
2019-01-30T05:20:25.064Z,-0.50
2019-01-30T05:22:26.800Z,-0.40
2019-01-30T05:24:28.533Z,-0.40
2019-01-30T05:26:30.262Z,-0.50
2019-01-30T05:28:31.979Z,-0.60
2019-01-30T05:30:34.007Z,-0.60
2019-01-30T05:32:35.735Z,-0.70
2019-01-30T05:34:37.457Z,-0.70
2019-01-30T05:36:39.302Z,-0.60
2019-01-30T05:38:41.010Z,-0.60
2019-01-30T05:40:42.719Z,-0.60
2019-01-30T05:42:44.442Z,-0.60
2019-01-30T05:44:46.186Z,-0.60
2019-01-30T05:46:47.898Z,-0.70
2019-01-30T05:48:49.755Z,-0.60
2019-01-30T05:50:51.516Z,-0.60
2019-01-30T05:52:53.566Z,-0.70
2019-01-30T05:54:55.328Z,-0.70
2019-01-30T05:56:57.134Z,-0.50
2019-01-30T05:58:58.859Z,-0.60
2019-01-30T06:01:00.606Z,-0.60
2019-01-30T06:03:02.526Z,-0.60
2019-01-30T06:05:04.953Z,-0.60
2019-01-30T06:07:06.949Z,-0.50
2019-01-30T06:09:08.676Z,-0.60
2019-01-30T06:11:12.210Z,-0.50
2019-01-30T06:13:14.079Z,-0.50
2019-01-30T06:15:16.138Z,-0.50
2019-01-30T06:17:17.869Z,-0.40
2019-01-30T06:19:19.700Z,-0.30
2019-01-30T06:21:21.426Z,-0.30
2019-01-30T06:23:23.158Z,-0.30
2019-01-30T06:25:25.132Z,-0.40
2019-01-30T06:27:26.871Z,-0.40
2019-01-30T06:29:28.683Z,-0.40
2019-01-30T06:31:30.506Z,-0.40
2019-01-30T06:33:32.218Z,-0.50
2019-01-30T06:35:34.026Z,-0.40
2019-01-30T06:37:35.846Z,-0.50
2019-01-30T06:39:37.554Z,-0.50
2019-01-30T06:41:39.375Z,-0.60
2019-01-30T06:43:41.419Z,-0.60
2019-01-30T06:45:43.107Z,-0.30
2019-01-30T06:47:45.021Z,-0.40
2019-01-30T06:49:46.747Z,-0.40
2019-01-30T06:51:48.485Z,-0.40
2019-01-30T06:53:50.318Z,-0.60
2019-01-30T06:55:52.085Z,-0.50
2019-01-30T06:57:53.802Z,-0.40
2019-01-30T06:59:55.810Z,-0.30
2019-01-30T07:01:57.786Z,-0.40
2019-01-30T07:03:59.502Z,-0.40
2019-01-30T07:06:01.369Z,-0.30
2019-01-30T07:08:03.271Z,-0.30
2019-01-30T07:10:08.083Z,-0.40
2019-01-30T07:12:09.801Z,-0.30
2019-01-30T07:14:11.536Z,-0.30
2019-01-30T07:16:13.234Z,-0.30
2019-01-30T07:18:15.059Z,-0.20
2019-01-30T07:20:16.996Z,-0.30
2019-01-30T07:22:18.926Z,-0.30
2019-01-30T07:24:20.741Z,-0.30
2019-01-30T07:26:22.441Z,-0.30
2019-01-30T07:28:24.182Z,-0.40
2019-01-30T07:30:36.337Z,-0.30
2019-01-30T07:32:42.346Z,-0.30
2019-01-30T07:34:41.766Z,-0.30
2019-01-30T07:36:43.470Z,-0.40
2019-01-30T07:38:45.166Z,-0.40
2019-01-30T07:40:47.242Z,-0.20
2019-01-30T07:42:49.397Z,-0.20
2019-01-30T07:44:51.287Z,-0.30
2019-01-30T07:46:53.018Z,-0.20
2019-01-30T07:48:54.727Z,-0.20
2019-01-30T07:50:56.475Z,0.00
2019-01-30T07:52:58.955Z,-0.10
2019-01-30T07:55:00.898Z,-0.10
2019-01-30T07:57:02.775Z,-0.10
2019-01-30T07:59:04.725Z,-0.10
2019-01-30T08:01:06.526Z,-0.20
2019-01-30T08:03:08.283Z,-0.20
2019-01-30T08:05:10.241Z,-0.10
2019-01-30T08:07:12.208Z,-0.10
2019-01-30T08:09:14.080Z,-0.10
2019-01-30T08:11:15.910Z,-0.10
2019-01-30T08:13:17.730Z,0.00
2019-01-30T08:15:19.929Z,-0.10
2019-01-30T08:17:22.027Z,0.00
2019-01-30T08:19:23.735Z,0.00
2019-01-30T08:24:15.562Z,0.00
2019-01-30T08:26:17.609Z,0.00
2019-01-30T08:28:20.080Z,0.00
2019-01-30T08:30:24.814Z,0.00
2019-01-30T08:32:27.202Z,0.10
2019-01-30T08:34:29.120Z,0.30
2019-01-30T08:36:30.860Z,0.20
2019-01-30T08:38:32.593Z,0.20
2019-01-30T08:40:34.307Z,0.30
2019-01-30T08:42:36.137Z,0.20
2019-01-30T08:44:46.923Z,0.20
2019-01-30T08:46:41.562Z,0.20
2019-01-30T08:48:43.310Z,0.10
2019-01-30T08:50:45.048Z,0.20
2019-01-30T08:52:46.871Z,0.20
2019-01-30T08:54:49.848Z,0.30
2019-01-30T08:56:53.080Z,0.30
2019-01-30T08:58:55.302Z,0.50
2019-01-30T09:00:57.026Z,0.30
2019-01-30T09:02:58.854Z,0.30
2019-01-30T10:11:39.291Z,0.90
2019-01-30T10:13:41.138Z,0.90
2019-01-30T10:15:43.460Z,1.00
2019-01-30T10:17:45.290Z,1.00
2019-01-30T10:19:47.000Z,1.10
2019-01-30T10:21:48.846Z,1.10
2019-01-30T10:23:50.898Z,1.00
2019-01-30T10:25:52.819Z,1.10
2019-01-30T10:27:54.574Z,1.20
2019-01-30T10:29:58.666Z,1.10
2019-01-30T10:31:59.913Z,1.10
2019-01-30T10:34:01.634Z,1.20
2019-01-30T10:36:03.934Z,1.30
2019-01-30T10:38:05.871Z,1.30
2019-01-30T10:40:10.428Z,1.30
2019-01-30T10:42:12.335Z,1.50
2019-01-30T10:44:14.043Z,1.50
2019-01-30T10:46:16.071Z,1.50
2019-01-30T10:48:17.927Z,1.30
2019-01-30T10:50:21.930Z,1.40
2019-01-30T10:52:23.854Z,1.30
2019-01-30T10:54:25.607Z,1.30
2019-01-30T10:56:27.416Z,1.40
2019-01-30T10:58:29.566Z,1.50
2019-01-30T11:00:34.704Z,1.70
2019-01-30T11:02:36.643Z,1.70
2019-01-30T11:04:38.402Z,1.70
2019-01-30T11:06:40.221Z,1.70
2019-01-30T11:08:41.943Z,1.60
2019-01-30T11:10:44.135Z,1.80
2019-01-30T11:12:46.150Z,1.70
2019-01-30T11:14:48.002Z,1.80
2019-01-30T11:16:49.714Z,2.00
2019-01-30T11:18:51.562Z,2.00
2019-01-30T11:20:53.412Z,2.10
2019-01-30T11:22:55.599Z,2.20
2019-01-30T11:24:57.616Z,2.20
2019-01-30T11:26:59.762Z,2.20
2019-01-30T11:29:01.754Z,2.10
2019-01-30T11:31:03.688Z,2.10
2019-01-30T11:33:05.689Z,2.20
2019-01-30T11:35:07.943Z,2.20
2019-01-30T11:37:09.913Z,2.40
2019-01-30T11:39:12.104Z,2.50
2019-01-30T11:41:14.573Z,2.40
2019-01-30T11:43:16.696Z,2.40
2019-01-30T11:45:35.544Z,2.30
2019-01-30T11:47:37.551Z,2.40
2019-01-30T11:49:39.369Z,2.50
2019-01-30T11:51:42.019Z,2.50
2019-01-30T11:53:44.527Z,2.50
2019-01-30T11:55:47.480Z,2.60
2019-01-30T11:57:50.071Z,2.50
2019-01-30T11:59:52.105Z,2.60
2019-01-30T12:01:54.204Z,2.70
2019-01-30T12:03:56.184Z,2.70
2019-01-30T12:05:58.270Z,2.70
2019-01-30T12:08:00.276Z,2.70
2019-01-30T12:10:02.915Z,2.70
2019-01-30T12:12:07.000Z,2.80
2019-01-30T12:14:09.641Z,3.00
2019-01-30T12:16:12.111Z,2.90
2019-01-30T12:18:14.620Z,2.80
2019-01-30T12:20:16.789Z,2.70
2019-01-30T12:22:18.978Z,2.80
2019-01-30T12:24:21.241Z,2.90
2019-01-30T12:26:23.485Z,2.90
2019-01-30T12:28:25.647Z,3.10
2019-01-30T12:30:27.574Z,3.20
2019-01-30T12:32:29.922Z,3.00
2019-01-30T12:34:31.632Z,3.00
2019-01-30T12:36:33.353Z,2.90
2019-01-30T12:38:35.446Z,2.90
2019-01-30T12:40:37.362Z,2.90
2019-01-30T12:43:11.095Z,2.80
2019-01-30T12:45:27.742Z,2.80
2019-01-30T12:47:29.475Z,2.60
2019-01-30T12:49:31.183Z,2.60
2019-01-30T12:51:33.269Z,2.70
2019-01-30T12:53:35.094Z,2.70
2019-01-30T12:55:37.003Z,2.80
2019-01-30T12:57:39.193Z,2.60
2019-01-30T12:59:41.036Z,2.50
2019-01-30T13:01:42.864Z,2.70
2019-01-30T13:03:44.586Z,2.80
2019-01-30T13:05:46.774Z,2.90
2019-01-30T13:07:48.762Z,2.90
2019-01-30T13:09:50.472Z,3.20
2019-01-30T13:11:52.608Z,3.30
2019-01-30T13:13:54.326Z,3.40
2019-01-30T13:15:56.047Z,3.30
2019-01-30T13:17:57.915Z,3.20
2019-01-30T13:19:59.626Z,3.40
2019-01-30T13:22:01.410Z,3.60
2019-01-30T13:24:05.187Z,3.60
2019-01-30T13:26:07.169Z,3.40
2019-01-30T13:28:09.186Z,3.30
2019-01-30T13:30:14.527Z,3.60
2019-01-30T13:32:16.520Z,3.90
2019-01-30T13:34:18.230Z,3.80
2019-01-30T13:36:20.067Z,3.70
2019-01-30T13:38:21.935Z,3.80
2019-01-30T13:40:26.849Z,3.70
2019-01-30T13:42:28.650Z,4.10
2019-01-30T13:44:30.498Z,4.10
2019-01-30T13:46:32.524Z,4.10
2019-01-30T13:48:34.380Z,4.30
2019-01-30T13:50:36.084Z,4.30
2019-01-30T13:52:37.834Z,4.20
2019-01-30T13:54:39.804Z,3.90
2019-01-30T13:56:41.538Z,3.90
2019-01-30T13:58:43.364Z,3.80
2019-01-30T14:00:45.216Z,3.80
2019-01-30T14:02:46.915Z,3.80
2019-01-30T14:04:59.095Z,3.60
2019-01-30T14:06:52.451Z,3.60
2019-01-30T14:08:54.587Z,3.60
2019-01-30T14:10:56.394Z,3.60
2019-01-30T14:12:58.318Z,3.60
2019-01-30T14:15:00.042Z,3.60
2019-01-30T14:17:01.798Z,3.60
2019-01-30T14:19:04.155Z,3.40
2019-01-30T14:21:06.150Z,3.50
2019-01-30T14:23:07.897Z,3.40
2019-01-30T14:25:13.155Z,3.20
2019-01-30T14:27:14.898Z,3.20
2019-01-30T14:29:16.874Z,3.10
2019-01-30T14:31:19.461Z,3.40
2019-01-30T14:33:21.334Z,3.20
2019-01-30T14:35:24.837Z,3.10
2019-01-30T14:37:27.051Z,3.20
2019-01-30T14:39:28.901Z,3.20
2019-01-30T14:41:30.594Z,3.10
2019-01-30T14:43:32.486Z,3.10
2019-01-30T14:45:34.415Z,3.20
2019-01-30T14:47:36.353Z,3.20
2019-01-30T14:49:38.833Z,3.10
2019-01-30T14:51:40.638Z,3.10
2019-01-30T14:53:42.372Z,3.20
2019-01-30T14:55:44.205Z,3.20
2019-01-30T14:57:46.662Z,3.00
2019-01-30T14:59:48.864Z,3.00
2019-01-30T15:01:50.802Z,3.00
2019-01-30T15:03:52.535Z,3.10
2019-01-30T15:05:54.535Z,3.00
2019-01-30T15:07:59.283Z,3.00
2019-01-30T15:10:01.155Z,2.90
2019-01-30T15:12:03.394Z,2.90
2019-01-30T15:14:05.249Z,2.80
2019-01-30T15:16:07.272Z,2.80
2019-01-30T15:18:09.391Z,2.80
2019-01-30T15:20:16.653Z,2.60
2019-01-30T15:22:18.506Z,2.70
2019-01-30T15:24:20.249Z,2.60
2019-01-30T15:26:22.114Z,2.60
2019-01-30T15:28:23.928Z,2.60
2019-01-30T15:30:34.115Z,2.50
2019-01-30T15:32:36.056Z,2.40
2019-01-30T15:34:37.782Z,2.50
2019-01-30T15:36:39.763Z,2.50
2019-01-30T15:38:41.771Z,2.50
2019-01-30T15:40:43.679Z,2.50
2019-01-30T15:42:49.352Z,2.50
2019-01-30T15:44:49.213Z,2.40
2019-01-30T15:46:53.634Z,2.40
2019-01-30T15:48:55.417Z,2.20
2019-01-30T15:50:57.223Z,2.20
2019-01-30T15:53:00.171Z,2.30
2019-01-30T15:55:02.094Z,2.20
2019-01-30T15:57:04.026Z,2.30
2019-01-30T15:59:08.722Z,2.30
2019-01-30T16:01:21.167Z,2.20
2019-01-30T16:03:22.887Z,2.20
2019-01-30T16:05:24.792Z,2.20
2019-01-30T16:07:26.652Z,2.20
2019-01-30T16:09:28.462Z,2.20
2019-01-30T16:11:30.284Z,2.20
2019-01-30T16:13:32.131Z,2.20
2019-01-30T16:15:37.378Z,2.10
2019-01-30T16:17:39.098Z,2.10
2019-01-30T16:19:40.828Z,2.10
2019-01-30T16:21:42.580Z,2.10
2019-01-30T16:23:44.474Z,2.10
2019-01-30T16:25:46.200Z,2.00
2019-01-30T16:27:48.042Z,2.00
2019-01-30T16:29:49.870Z,1.90
2019-01-30T16:31:51.782Z,2.00
2019-01-30T16:33:53.629Z,2.00
2019-01-30T16:35:56.495Z,1.90
2019-01-30T16:37:58.722Z,1.90
2019-01-30T16:40:00.555Z,2.00
2019-01-30T16:42:02.650Z,2.00
2019-01-30T16:44:04.635Z,2.00
2019-01-30T16:46:06.702Z,1.90
2019-01-30T16:48:08.879Z,1.90
2019-01-30T16:50:12.134Z,1.90
2019-01-30T16:52:14.218Z,1.90
2019-01-30T16:54:16.236Z,1.90
2019-01-30T16:56:18.001Z,1.90
2019-01-30T16:58:19.842Z,1.90
2019-01-30T17:00:26.650Z,1.80
2019-01-30T17:02:28.477Z,1.80
2019-01-30T17:04:30.191Z,1.80
2019-01-30T17:06:32.026Z,1.80
2019-01-30T17:08:33.871Z,1.80
2019-01-30T17:10:41.242Z,1.70
2019-01-30T17:12:43.265Z,1.80
2019-01-30T17:14:54.059Z,1.80
2019-01-30T17:16:55.768Z,1.80
2019-01-30T17:18:57.791Z,1.80
2019-01-30T17:21:01.941Z,1.70
2019-01-30T17:23:04.094Z,1.80
2019-01-30T17:25:06.403Z,1.70
2019-01-30T17:27:08.134Z,1.70
2019-01-30T17:29:12.662Z,1.70
2019-01-30T17:31:28.752Z,1.80
2019-01-30T17:33:30.755Z,1.70
2019-01-30T17:35:32.837Z,1.70
2019-01-30T17:37:34.566Z,1.60
2019-01-30T17:39:36.664Z,1.60
2019-01-30T17:41:38.503Z,1.70
2019-01-30T17:43:40.823Z,1.70
2019-01-30T17:45:42.756Z,1.70
2019-01-30T17:47:45.128Z,1.70
2019-01-30T17:49:47.390Z,1.70
2019-01-30T17:51:49.211Z,1.70
2019-01-30T17:53:51.262Z,1.80
2019-01-30T17:55:53.462Z,1.80
2019-01-30T17:57:55.576Z,1.80
2019-01-30T17:59:58.190Z,1.80
2019-01-30T18:02:01.992Z,1.80
2019-01-30T18:04:04.356Z,1.90
2019-01-30T18:06:06.953Z,1.80
2019-01-30T18:08:08.816Z,1.80
2019-01-30T18:10:10.832Z,1.80
2019-01-30T18:12:12.556Z,1.60
2019-01-30T18:14:14.296Z,1.70
2019-01-30T18:16:16.192Z,1.70
2019-01-30T18:18:18.145Z,1.70
2019-01-30T18:20:20.125Z,1.70
2019-01-30T18:22:21.879Z,1.70
2019-01-30T18:24:23.682Z,1.70
2019-01-30T18:26:25.616Z,1.70
2019-01-30T18:28:27.411Z,1.80
2019-01-30T18:30:29.279Z,1.90
2019-01-30T18:32:31.082Z,1.90
2019-01-30T18:34:32.919Z,1.90
2019-01-30T18:36:41.313Z,1.90
2019-01-30T18:38:38.426Z,1.80
2019-01-30T18:40:40.251Z,1.80
2019-01-30T18:42:42.587Z,1.80
2019-01-30T18:44:44.922Z,1.80
2019-01-30T18:46:46.699Z,1.70
2019-01-30T18:48:48.446Z,1.70
2019-01-30T18:50:50.407Z,1.70
2019-01-30T18:52:52.658Z,1.70
2019-01-30T18:54:54.387Z,1.70
2019-01-30T18:56:56.209Z,1.60
2019-01-30T18:58:57.959Z,1.50
2019-01-30T19:01:00.048Z,1.60
2019-01-30T19:03:04.596Z,1.60
2019-01-30T19:05:07.323Z,1.60
2019-01-30T19:07:09.057Z,1.40
2019-01-30T19:09:10.998Z,1.40
2019-01-30T19:11:12.729Z,1.40
2019-01-30T19:13:14.794Z,1.40
2019-01-30T19:15:18.451Z,1.40
2019-01-30T19:17:20.366Z,1.30
2019-01-30T19:19:22.536Z,1.20
2019-01-30T19:21:24.231Z,1.30
2019-01-30T19:23:26.418Z,1.30
2019-01-30T19:25:28.303Z,1.20
2019-01-30T19:27:30.086Z,1.20
2019-01-30T19:29:31.988Z,1.20
2019-01-30T19:31:33.860Z,1.20
2019-01-30T19:33:35.722Z,1.30
2019-01-30T19:35:37.451Z,1.30
2019-01-30T19:37:39.363Z,1.20
2019-01-30T19:39:41.267Z,1.20
2019-01-30T19:41:42.984Z,1.10
2019-01-30T19:43:44.699Z,1.10
2019-01-30T19:45:46.517Z,1.10
2019-01-30T19:47:48.454Z,1.00
2019-01-30T19:49:50.641Z,1.10
2019-01-30T19:51:52.407Z,1.20
2019-01-30T19:53:54.323Z,1.20
2019-01-30T19:55:56.054Z,1.10
2019-01-30T19:58:00.371Z,1.10
2019-01-30T20:00:03.231Z,1.10
2019-01-30T20:02:05.768Z,1.10
2019-01-30T20:04:08.431Z,1.10
2019-01-30T20:06:10.681Z,1.10
2019-01-30T20:08:12.601Z,1.10
2019-01-30T20:10:18.328Z,1.10
2019-01-30T20:12:20.271Z,1.00
2019-01-30T20:14:21.990Z,1.00
2019-01-30T20:16:23.715Z,1.10
2019-01-30T20:18:25.658Z,1.10
2019-01-30T20:20:27.672Z,1.20
2019-01-30T20:22:29.472Z,1.10
2019-01-30T20:24:31.195Z,1.10
2019-01-30T20:26:33.022Z,1.10
2019-01-30T20:28:34.959Z,1.00
2019-01-30T20:30:36.874Z,1.10
2019-01-30T20:32:38.790Z,1.00
2019-01-30T20:34:40.610Z,1.00
2019-01-30T20:37:02.601Z,1.10
2019-01-30T20:39:06.288Z,1.20
2019-01-30T20:41:08.014Z,1.20
2019-01-30T20:43:09.871Z,1.10
2019-01-30T20:45:11.995Z,1.10
2019-01-30T20:47:13.942Z,1.10
2019-01-30T20:49:17.912Z,1.10
2019-01-30T20:51:19.819Z,1.00
2019-01-30T20:53:21.646Z,1.10
2019-01-30T20:55:23.609Z,1.10
2019-01-30T20:57:25.454Z,1.10
2019-01-30T20:59:27.272Z,1.10
2019-01-30T21:01:29.023Z,1.20
2019-01-30T21:03:30.956Z,1.20
2019-01-30T21:05:32.861Z,1.20
2019-01-30T21:07:37.406Z,1.20
2019-01-30T21:09:38.408Z,1.20
2019-01-30T21:11:40.125Z,1.30
2019-01-30T21:13:41.935Z,1.20
2019-01-30T21:15:43.982Z,1.20
2019-01-30T21:17:48.022Z,1.20
2019-01-30T21:19:49.727Z,1.20
2019-01-30T21:21:51.814Z,1.30
2019-01-30T21:23:53.783Z,1.30
2019-01-30T21:25:55.508Z,1.20
2019-01-30T21:27:57.480Z,1.30
2019-01-30T21:29:59.667Z,1.30
2019-01-30T21:32:01.431Z,1.40
2019-01-30T21:34:03.570Z,1.30
2019-01-30T21:36:05.415Z,1.30
2019-01-30T21:38:07.233Z,1.30
2019-01-30T21:40:11.162Z,1.30
2019-01-30T21:42:12.883Z,1.40
2019-01-30T21:44:14.746Z,1.50
2019-01-30T21:46:16.846Z,1.40
2019-01-30T21:48:18.920Z,1.40
2019-01-30T21:50:21.348Z,1.50
2019-01-30T21:52:23.198Z,1.40
2019-01-30T21:54:25.022Z,1.40
2019-01-30T21:56:26.871Z,1.40
2019-01-30T21:58:28.654Z,1.40
2019-01-30T22:00:30.765Z,1.30
2019-01-30T22:02:32.581Z,1.30
2019-01-30T22:04:34.474Z,1.20
2019-01-30T22:06:36.352Z,1.10
2019-01-30T22:08:38.156Z,1.20
2019-01-30T22:10:39.883Z,1.30
2019-01-30T22:12:41.920Z,1.30
2019-01-30T22:14:43.632Z,1.20
2019-01-30T22:16:45.442Z,1.20
2019-01-30T22:18:47.166Z,1.10
2019-01-30T22:20:49.169Z,1.30
2019-01-30T22:22:51.274Z,1.40
2019-01-30T22:24:53.267Z,1.40
2019-01-30T22:26:55.118Z,1.30
2019-01-30T22:28:56.846Z,1.40
2019-01-30T22:30:58.554Z,1.40
2019-01-30T22:33:00.487Z,1.30
2019-01-30T22:35:02.354Z,1.30
2019-01-30T22:37:04.182Z,1.30
2019-01-30T22:39:07.251Z,1.30
2019-01-30T22:41:19.188Z,1.40
2019-01-30T22:43:21.124Z,1.30
2019-01-30T22:45:23.081Z,1.30
2019-01-30T22:47:24.870Z,1.40
2019-01-30T22:49:26.853Z,1.40
2019-01-30T22:51:28.786Z,1.40
2019-01-30T22:53:30.578Z,1.40
2019-01-30T22:55:32.464Z,1.40
2019-01-30T22:57:40.501Z,1.40
2019-01-30T22:59:42.218Z,1.30
2019-01-30T23:01:48.226Z,1.40
2019-01-30T23:04:27.495Z,1.40
2019-01-30T23:06:50.231Z,1.50
2019-01-30T23:09:01.494Z,1.30
2019-01-30T23:11:32.707Z,1.40
2019-01-30T23:13:53.149Z,1.40
2019-01-30T23:16:02.694Z,1.50
2019-01-30T23:18:18.571Z,1.50
2019-01-30T23:20:27.374Z,1.50
2019-01-30T23:22:56.764Z,1.50
2019-01-30T23:25:41.763Z,1.40
2019-01-30T23:27:56.202Z,1.50
2019-01-30T23:30:34.294Z,1.40
2019-01-30T23:33:20.771Z,1.50
2019-01-30T23:36:08.885Z,1.40
2019-01-30T23:39:05.419Z,1.40
2019-01-30T23:41:54.641Z,1.50
2019-01-30T23:44:15.915Z,1.50
2019-01-30T23:47:05.553Z,1.50
2019-01-30T23:49:41.199Z,1.40
2019-01-30T23:52:09.500Z,1.50
2019-01-30T23:54:44.610Z,1.50
2019-01-30T23:57:24.944Z,1.40
2019-01-30T23:59:48.083Z,1.40
